Latest Coastal Weather Observations for Mardie

IDW60701

Issued at 10:02 pm WST Tuesday 26 May 2015 (issued every 10 minutes, with the page automatically refreshed every 10 minutes)

About coastal observations | Map of coastal stations | Coastal observations for WA | Marine services | Other Formats
Station Details ID: 005008 Name: MARDIE Lat: -21.19 Lon: 115.98 Height: 11.0 m
Data from the previous 72 hours. | See also: Recent months at Mardie
Date/Time
WST
Temp

°C
Wind Pressure Rain
since 9am
mm
Weather Cloud Vis
km
Sea
Height
m
Swell
Dir
 
Speed
knots
Gust
knots
hPa Trend Height
m
Period
s
Dir
26/10:00pm 21.0 WNW 3 4 1016.8 - 0.0 - - - - - - -
26/09:30pm 21.2 WNW 3 4 1016.8 - 0.0 - - - - - - -
26/09:00pm 21.6 CALM 0 0 1017.0 - 0.0 - - - - - - -
26/08:30pm 22.0 WNW 1 2 1016.9 - 0.0 - - - - - - -
26/08:00pm 22.0 WNW 2 2 1016.7 - 0.0 - - - - - - -
26/07:30pm 22.3 WNW 3 3 1016.4 - 0.0 - - - - - - -
26/07:00pm 22.1 WNW 2 3 1016.0 - 0.0 - - - - - - -
26/06:30pm 22.6 WNW 3 3 1015.7 - 0.0 - - - - - - -
26/06:00pm 23.1 WNW 1 3 1015.5 - 0.0 - - - - - - -
26/05:30pm 23.8 WNW 3 4 1015.2 - 0.0 - - - - - - -
26/05:00pm 24.7 WNW 3 4 1014.9 - 0.0 - - - - - - -
26/04:30pm 25.3 WNW 3 5 1014.7 - 0.0 - - - - - - -
26/04:00pm 25.6 NW 5 7 1014.8 - 0.0 - - - - - - -
26/03:30pm 25.9 WNW 5 9 1014.7 - 0.0 - - - - - - -
26/03:00pm 26.1 CALM 0 1 1014.7 - 0.0 - - - - - - -
26/02:30pm 26.6 ENE 1 3 1014.6 - 0.0 - - - - - - -
26/02:00pm 26.9 ENE 1 5 1014.8 - 0.0 - - - - - - -
26/01:30pm 26.1 ENE 3 7 1015.0 - 0.0 - - - - - - -
26/01:00pm 25.6 ENE 6 8 1015.4 - 0.0 - - - - - - -
26/12:30pm 25.2 SE 5 9 1015.7 - 0.0 - - - - - - -
26/12:00pm 23.9 SE 4 7 1016.1 - 0.0 - - - - - - -
26/11:30am 22.8 SE 5 7 1016.7 - 0.0 - - - - - - -
26/11:00am 21.5 SE 5 6 1017.1 - 0.0 - - - - - - -
26/10:30am 20.9 SE 6 9 1017.3 - 0.0 - - - - - - -
26/10:00am 20.6 ESE 4 5 1017.5 - 0.0 - - - - - - -
26/09:30am 20.1 ESE 5 7 1017.4 - 0.0 - - - - - - -
26/09:00am 19.8 ESE 2 3 1017.7 - - - - - - - - -
26/08:30am 19.5 ESE 4 7 1017.5 - - - - - - - - -
26/08:00am 19.2 ESE 4 7 1016.9 - - - - - - - - -
26/07:30am 18.8 SE 6 7 1016.8 - - - - - - - - -
26/07:00am 18.6 SE 6 8 1016.5 - - - - - - - - -
26/06:30am 18.2 SE 5 6 1016.1 - - - - - - - - -
26/06:00am 18.3 SE 5 7 1016.1 - - - - - - - - -
26/05:30am 18.4 ESE 8 11 1015.3 - - - - - - - - -
26/05:00am 18.3 SE 8 11 1015.2 - - - - - - - - -
26/04:30am 18.4 SE 9 12 1015.5 - - - - - - - - -
26/04:00am 18.4 SE 10 12 1015.4 - - - - - - - - -
26/03:30am 18.5 SE 9 13 1015.6 - - - - - - - - -
26/03:00am 18.7 SE 10 14 1015.9 - - - - - - - - -
26/02:30am 18.7 SE 7 9 1015.9 - - - - - - - - -
26/02:00am 18.5 SE 8 10 1016.1 - - - - - - - - -
26/01:30am 18.6 SE 8 12 1016.2 - - - - - - - - -
26/01:00am 18.5 SE 10 13 1016.4 - - - - - - - - -
26/12:30am 18.5 SE 9 12 1016.5 - - - - - - - - -
 
Date/Time
WST
Temp

°C
Wind Pressure Rain
since 9am
mm
Weather Cloud Vis
km
Sea
Height
m
Swell
Dir
 
Speed
knots
Gust
knots
hPa Trend Height
m
Period
s
Dir
25/11:30pm 18.3 ESE 12 15 1017.2 - - - - - - - - -
25/11:00pm 18.3 ESE 10 14 1017.3 - - - - - - - - -
25/03:00pm 21.4 E 9 - 1014.5 - - - - - - - - -
25/02:30pm 21.0 ENE 11 14 1014.5 - - - - - - - - -
25/02:00pm 21.8 ENE 11 14 1014.6 - - - - - - - - -
25/01:30pm 22.2 ENE 10 15 1014.9 - 0.0 - - - - - - -
25/01:00pm 22.2 ENE 14 19 1015.1 - 0.0 - - - - - - -
25/12:30pm 22.3 E 16 20 1015.4 - 0.0 - - - - - - -
25/12:00pm 22.6 E 16 21 1015.6 - 0.0 - - - - - - -
25/11:30am 22.2 E 16 22 1015.8 - 0.0 - - - - - - -
25/11:00am 21.5 E 17 23 1016.4 - 0.0 - - - - - - -
25/10:30am 21.5 E 17 22 1016.7 - 0.0 - - - - - - -
25/10:00am 21.1 E 16 23 1016.8 - 0.0 - - - - - - -
25/09:30am 20.3 E 15 19 1016.8 - 0.0 - - - - - - -
25/09:00am 20.0 E 14 18 1016.8 - 21.4 - - - - - - -
25/08:30am 19.7 E 14 18 1016.6 - 21.4 - - - - - - -
25/08:00am 19.4 E 12 17 1016.5 - 21.4 - - - - - - -
25/07:30am 19.2 E 12 16 1016.2 - 21.4 - - - - - - -
25/07:00am 19.2 E 12 16 1015.9 - 21.4 - - - - - - -
25/06:30am 19.3 E 12 16 1015.5 - 21.4 - - - - - - -
25/06:00am 19.4 E 11 15 1015.1 - 21.4 - - - - - - -
25/05:30am 19.5 E 12 17 1014.7 - 21.4 - - - - - - -
25/05:00am 19.6 E 9 13 1014.7 - 21.4 - - - - - - -
25/04:30am 19.6 E 9 12 1014.6 - 21.4 - - - - - - -
25/04:00am 19.7 E 9 13 1014.5 - 21.4 - - - - - - -
25/03:30am 19.8 E 9 12 1014.4 - 21.4 - - - - - - -
25/03:00am 19.6 E 9 12 1014.4 - 21.4 - - - - - - -
25/02:30am 19.5 ENE 9 12 1014.5 - 21.4 - - - - - - -
25/02:00am 19.5 ENE 9 12 1014.5 - 21.4 - - - - - - -
25/01:30am 19.6 ENE 11 14 1014.4 - 21.4 - - - - - - -
25/01:00am 19.6 ENE 9 12 1014.9 - 21.4 - - - - - - -
25/12:30am 19.4 ENE 12 16 1015.0 - 21.4 - - - - - - -
25/12:00am 19.5 E 9 13 1015.2 - 21.4 - - - - - - -
 
Date/Time
WST
Temp

°C
Wind Pressure Rain
since 9am
mm
Weather Cloud Vis
km
Sea
Height
m
Swell
Dir
 
Speed
knots
Gust
knots
hPa Trend Height
m
Period
s
Dir
24/11:30pm 19.7 E 9 11 1015.4 - 21.4 - - - - - - -
24/11:00pm 19.7 ENE 9 12 1015.1 - 21.4 - - - - - - -
24/10:30pm 20.0 ENE 5 8 1015.4 - 21.2 - - - - - - -
24/10:00pm 20.1 ENE 11 14 1015.3 - 21.2 - - - - - - -
24/09:30pm 20.0 E 10 13 1015.5 - 21.2 - - - - - - -
24/09:00pm 19.9 E 10 12 1015.2 - 21.2 - - - - - - -
24/08:30pm 19.7 ESE 11 14 1015.6 - 21.2 - - - - - - -
24/08:00pm 19.5 ESE 7 10 1015.9 - 21.2 - - - - - - -
24/07:30pm 19.6 ESE 7 9 1015.9 - 20.8 - - - - - - -
24/07:00pm 19.8 E 6 8 1016.0 - 19.4 - - - - - - -
24/06:30pm 19.7 E 7 9 1015.8 - 19.0 - - - - - - -
24/06:00pm 19.7 ENE 6 7 1015.5 - 18.8 Rain - - - - - -
24/05:30pm 19.8 ENE 6 9 1015.5 - 15.2 - - - - - - -
24/05:00pm 19.8 ENE 11 14 1015.1 - 13.4 - - - - - - -
24/04:30pm 20.1 ENE 9 12 1014.7 - 11.6 - - - - - - -
24/04:00pm 20.4 ENE 8 11 1014.7 - 10.0 - - - - - - -
24/03:30pm 20.6 NE 9 12 1014.6 - 7.4 - - - - - - -
24/03:00pm 20.5 NE 10 14 1014.5 - 6.4 Rain - - - - - -
24/02:30pm 20.7 NE 10 14 1014.4 - 5.0 - - - - - - -
24/02:00pm 22.2 ENE 5 7 1014.2 - 0.0 - - - - - - -
24/01:30pm 22.8 ENE 5 7 1014.3 - 0.0 - - - - - - -
24/01:00pm 22.9 ENE 5 7 1014.8 - 0.0 - - - - - - -
24/12:30pm 23.4 ENE 4 6 1015.0 - 0.0 - - - - - - -
24/12:00pm 23.4 ENE 4 6 1015.4 - 0.0 - - - - - - -
24/11:30am 23.1 ENE 5 7 1015.5 - 0.0 - - - - - - -
24/11:00am 23.3 SE 6 9 1016.0 - 0.0 - - - - - - -
24/10:30am 22.9 S 5 8 1016.1 - 0.0 - - - - - - -
24/10:00am 22.5 SSW 6 9 1015.9 - 0.0 - - - - - - -
24/09:30am 22.3 SSW 4 7 1015.8 - 0.0 - - - - - - -
24/09:00am 21.7 SSW 6 7 1015.4 - 10.2 - - - - - - -
24/08:30am 21.2 SSW 2 3 1015.4 - 10.2 - - - - - - -
24/08:00am 20.8 SSW 2 4 1015.2 - 10.2 - - - - - - -
24/07:30am 20.5 SSW 4 5 1015.1 - 10.2 - - - - - - -
24/07:00am 20.4 SSW 1 2 1014.8 - 10.0 - - - - - - -
24/06:30am 20.3 SSW 3 4 1014.4 - 10.0 - - - - - - -
24/06:00am 20.3 SSW 3 3 1014.5 - 10.0 - - - - - - -
24/05:30am 20.1 SSW 3 4 1014.4 - 10.0 - - - - - - -
24/05:00am 20.0 SSW 2 2 1014.2 - 10.0 - - - - - - -
24/04:30am 19.9 CALM 0 0 1014.3 - 10.0 - - - - - - -
24/04:00am 19.8 SSW 2 3 1014.0 - 10.0 - - - - - - -
24/03:30am 19.9 CALM 0 0 1013.9 - 10.0 - - - - - - -
24/03:00am 20.2 CALM 0 0 1014.2 - 10.0 - - - - - - -
24/02:30am 20.4 CALM 0 0 1014.3 - 10.0 - - - - - - -
24/02:00am 20.3 CALM 0 0 1014.5 - 10.0 - - - - - - -
24/01:30am 20.4 CALM 0 0 1014.5 - 10.0 - - - - - - -
24/01:00am 20.6 CALM 0 0 1014.7 - 10.0 - - - - - - -
24/12:30am 20.8 SSW 1 2 1014.8 - 10.0 - - - - - - -
24/12:00am 21.0 CALM 0 0 1014.8 - 10.0 - - - - - - -
 
Date/Time
WST
Temp

°C
Wind Pressure Rain
since 9am
mm
Weather Cloud Vis
km
Sea
Height
m
Swell
Dir
 
Speed
knots
Gust
knots
hPa Trend Height
m
Period
s
Dir
23/11:30pm 21.2 CALM 0 0 1014.9 - 10.0 - - - - - - -
23/11:00pm 21.3 CALM 0 0 1014.9 - 10.0 - - - - - - -
23/10:30pm 21.3 CALM 0 0 1014.8 - 10.0 - - - - - - -

Other Formats:

Comma delimited format used in spreadsheet applications
http://www.bom.gov.au/fwo/IDW60701/IDW60701.94306.axf

JavaScript Object Notation format (JSON) in row-major order
http://www.bom.gov.au/fwo/IDW60701/IDW60701.94306.json